sensor_id;sensor_type;location;lat;lon;timestamp;P1;durP1;ratioP1;P2;durP2;ratioP2
50605;SDS011;36557;53.572;10.170;2022-07-17T00:01:05;7.60;;;1.60;;
50605;SDS011;36557;53.572;10.170;2022-07-17T00:03:32;8.48;;;1.83;;
50605;SDS011;36557;53.572;10.170;2022-07-17T00:05:57;4.68;;;1.40;;
50605;SDS011;36557;53.572;10.170;2022-07-17T00:08:23;6.45;;;1.70;;
50605;SDS011;36557;53.572;10.170;2022-07-17T00:10:49;3.42;;;1.25;;
50605;SDS011;36557;53.572;10.170;2022-07-17T00:13:15;5.20;;;1.23;;
50605;SDS011;36557;53.572;10.170;2022-07-17T00:15:41;5.57;;;1.77;;
50605;SDS011;36557;53.572;10.170;2022-07-17T00:18:06;7.70;;;1.63;;
50605;SDS011;36557;53.572;10.170;2022-07-17T00:20:32;7.00;;;1.55;;
50605;SDS011;36557;53.572;10.170;2022-07-17T00:22:59;5.63;;;1.40;;
50605;SDS011;36557;53.572;10.170;2022-07-17T00:25:25;4.55;;;1.50;;
50605;SDS011;36557;53.572;10.170;2022-07-17T00:27:50;4.35;;;1.80;;
50605;SDS011;36557;53.572;10.170;2022-07-17T00:30:16;6.90;;;1.20;;
50605;SDS011;36557;53.572;10.170;2022-07-17T00:32:42;7.00;;;1.35;;
50605;SDS011;36557;53.572;10.170;2022-07-17T00:35:09;6.10;;;1.30;;
50605;SDS011;36557;53.572;10.170;2022-07-17T00:37:39;5.13;;;1.50;;
50605;SDS011;36557;53.572;10.170;2022-07-17T00:40:06;8.43;;;1.80;;
50605;SDS011;36557;53.572;10.170;2022-07-17T00:42:32;6.03;;;1.30;;
50605;SDS011;36557;53.572;10.170;2022-07-17T00:44:58;6.10;;;1.42;;
50605;SDS011;36557;53.572;10.170;2022-07-17T00:47:24;5.00;;;1.40;;
50605;SDS011;36557;53.572;10.170;2022-07-17T00:49:50;5.13;;;1.90;;
50605;SDS011;36557;53.572;10.170;2022-07-17T00:52:16;6.97;;;1.75;;
50605;SDS011;36557;53.572;10.170;2022-07-17T00:54:44;5.65;;;1.50;;
50605;SDS011;36557;53.572;10.170;2022-07-17T00:57:11;6.18;;;1.50;;
50605;SDS011;36557;53.572;10.170;2022-07-17T00:59:38;4.78;;;1.45;;
50605;SDS011;36557;53.572;10.170;2022-07-17T01:02:10;6.32;;;1.63;;
50605;SDS011;36557;53.572;10.170;2022-07-17T01:04:38;6.00;;;1.60;;
50605;SDS011;36557;53.572;10.170;2022-07-17T01:07:05;5.97;;;1.55;;
50605;SDS011;36557;53.572;10.170;2022-07-17T01:09:32;6.50;;;1.55;;
50605;SDS011;36557;53.572;10.170;2022-07-17T01:11:59;4.32;;;1.52;;
50605;SDS011;36557;53.572;10.170;2022-07-17T01:14:26;6.55;;;1.98;;
50605;SDS011;36557;53.572;10.170;2022-07-17T01:16:52;4.60;;;1.25;;
50605;SDS011;36557;53.572;10.170;2022-07-17T01:19:19;5.25;;;1.55;;
50605;SDS011;36557;53.572;10.170;2022-07-17T01:21:49;4.97;;;1.25;;
50605;SDS011;36557;53.572;10.170;2022-07-17T01:24:16;6.05;;;1.70;;
50605;SDS011;36557;53.572;10.170;2022-07-17T01:26:43;3.58;;;1.30;;
50605;SDS011;36557;53.572;10.170;2022-07-17T01:29:13;3.47;;;1.48;;
50605;SDS011;36557;53.572;10.170;2022-07-17T01:31:39;5.13;;;1.30;;
50605;SDS011;36557;53.572;10.170;2022-07-17T01:34:06;5.18;;;1.70;;
50605;SDS011;36557;53.572;10.170;2022-07-17T01:36:33;4.18;;;1.30;;
50605;SDS011;36557;53.572;10.170;2022-07-17T01:38:59;6.53;;;1.45;;
50605;SDS011;36557;53.572;10.170;2022-07-17T01:41:26;8.05;;;2.13;;
50605;SDS011;36557;53.572;10.170;2022-07-17T01:43:51;6.78;;;1.70;;
50605;SDS011;36557;53.572;10.170;2022-07-17T01:46:17;6.03;;;1.80;;
50605;SDS011;36557;53.572;10.170;2022-07-17T01:48:43;7.18;;;1.77;;
50605;SDS011;36557;53.572;10.170;2022-07-17T01:51:09;5.53;;;1.40;;
50605;SDS011;36557;53.572;10.170;2022-07-17T01:53:34;3.90;;;1.30;;
50605;SDS011;36557;53.572;10.170;2022-07-17T01:56:00;6.05;;;1.77;;
50605;SDS011;36557;53.572;10.170;2022-07-17T01:58:26;6.00;;;1.80;;
50605;SDS011;36557;53.572;10.170;2022-07-17T02:00:52;6.68;;;1.55;;
50605;SDS011;36557;53.572;10.170;2022-07-17T02:03:18;6.57;;;1.55;;
50605;SDS011;36557;53.572;10.170;2022-07-17T02:05:45;6.30;;;1.42;;
50605;SDS011;36557;53.572;10.170;2022-07-17T02:08:11;5.82;;;1.92;;
50605;SDS011;36557;53.572;10.170;2022-07-17T02:10:37;2.25;;;1.27;;
50605;SDS011;36557;53.572;10.170;2022-07-17T02:13:03;4.30;;;1.50;;
50605;SDS011;36557;53.572;10.170;2022-07-17T02:15:29;5.53;;;1.92;;
50605;SDS011;36557;53.572;10.170;2022-07-17T02:17:54;4.53;;;1.55;;
50605;SDS011;36557;53.572;10.170;2022-07-17T02:20:21;7.95;;;1.80;;
50605;SDS011;36557;53.572;10.170;2022-07-17T02:22:47;3.58;;;1.60;;
50605;SDS011;36557;53.572;10.170;2022-07-17T02:25:13;4.65;;;1.50;;
50605;SDS011;36557;53.572;10.170;2022-07-17T02:27:40;4.40;;;1.70;;
50605;SDS011;36557;53.572;10.170;2022-07-17T02:30:09;7.22;;;1.50;;
50605;SDS011;36557;53.572;10.170;2022-07-17T02:32:38;6.10;;;1.30;;
50605;SDS011;36557;53.572;10.170;2022-07-17T02:35:05;4.10;;;1.48;;
50605;SDS011;36557;53.572;10.170;2022-07-17T02:37:32;3.58;;;1.02;;
50605;SDS011;36557;53.572;10.170;2022-07-17T02:39:58;4.63;;;1.27;;
50605;SDS011;36557;53.572;10.170;2022-07-17T02:42:25;6.82;;;1.83;;
50605;SDS011;36557;53.572;10.170;2022-07-17T02:44:52;8.00;;;1.38;;
50605;SDS011;36557;53.572;10.170;2022-07-17T02:47:22;9.15;;;1.73;;
50605;SDS011;36557;53.572;10.170;2022-07-17T02:49:50;8.65;;;1.70;;
50605;SDS011;36557;53.572;10.170;2022-07-17T02:52:17;7.85;;;1.88;;
50605;SDS011;36557;53.572;10.170;2022-07-17T02:54:43;9.52;;;1.73;;
50605;SDS011;36557;53.572;10.170;2022-07-17T02:57:09;8.90;;;1.77;;
50605;SDS011;36557;53.572;10.170;2022-07-17T02:59:35;6.05;;;1.55;;
50605;SDS011;36557;53.572;10.170;2022-07-17T03:02:01;8.48;;;1.95;;
50605;SDS011;36557;53.572;10.170;2022-07-17T03:04:27;7.65;;;1.50;;
50605;SDS011;36557;53.572;10.170;2022-07-17T03:06:53;6.63;;;1.52;;
50605;SDS011;36557;53.572;10.170;2022-07-17T03:09:18;9.75;;;2.00;;
50605;SDS011;36557;53.572;10.170;2022-07-17T03:11:44;4.95;;;1.88;;
50605;SDS011;36557;53.572;10.170;2022-07-17T03:14:10;7.25;;;1.80;;
50605;SDS011;36557;53.572;10.170;2022-07-17T03:16:35;4.88;;;1.80;;
50605;SDS011;36557;53.572;10.170;2022-07-17T03:19:01;6.88;;;1.95;;
50605;SDS011;36557;53.572;10.170;2022-07-17T03:21:27;6.70;;;1.55;;
50605;SDS011;36557;53.572;10.170;2022-07-17T03:23:53;8.63;;;1.90;;
50605;SDS011;36557;53.572;10.170;2022-07-17T03:26:19;4.00;;;1.63;;
50605;SDS011;36557;53.572;10.170;2022-07-17T03:28:44;5.95;;;1.75;;
50605;SDS011;36557;53.572;10.170;2022-07-17T03:31:10;8.43;;;2.00;;
50605;SDS011;36557;53.572;10.170;2022-07-17T03:33:36;6.80;;;1.70;;
50605;SDS011;36557;53.572;10.170;2022-07-17T03:36:01;6.47;;;1.70;;
50605;SDS011;36557;53.572;10.170;2022-07-17T03:38:27;6.45;;;1.50;;
50605;SDS011;36557;53.572;10.170;2022-07-17T03:40:53;8.95;;;1.98;;
50605;SDS011;36557;53.572;10.170;2022-07-17T03:43:18;6.85;;;1.48;;
50605;SDS011;36557;53.572;10.170;2022-07-17T03:45:44;3.25;;;1.35;;
50605;SDS011;36557;53.572;10.170;2022-07-17T03:48:10;7.82;;;1.83;;
50605;SDS011;36557;53.572;10.170;2022-07-17T03:50:36;7.25;;;1.67;;
50605;SDS011;36557;53.572;10.170;2022-07-17T03:53:02;6.18;;;1.45;;
50605;SDS011;36557;53.572;10.170;2022-07-17T03:55:27;9.70;;;2.45;;
50605;SDS011;36557;53.572;10.170;2022-07-17T03:57:53;5.32;;;1.60;;
50605;SDS011;36557;53.572;10.170;2022-07-17T04:00:19;6.45;;;1.60;;
50605;SDS011;36557;53.572;10.170;2022-07-17T04:02:45;3.60;;;1.40;;
50605;SDS011;36557;53.572;10.170;2022-07-17T04:05:10;5.18;;;1.60;;
50605;SDS011;36557;53.572;10.170;2022-07-17T04:07:37;6.95;;;1.45;;
50605;SDS011;36557;53.572;10.170;2022-07-17T04:10:04;5.90;;;1.20;;
50605;SDS011;36557;53.572;10.170;2022-07-17T04:12:31;4.88;;;1.30;;
50605;SDS011;36557;53.572;10.170;2022-07-17T04:14:56;4.05;;;1.20;;
50605;SDS011;36557;53.572;10.170;2022-07-17T04:17:22;3.75;;;1.17;;
50605;SDS011;36557;53.572;10.170;2022-07-17T04:19:48;5.40;;;1.13;;
50605;SDS011;36557;53.572;10.170;2022-07-17T04:22:14;5.22;;;1.50;;
50605;SDS011;36557;53.572;10.170;2022-07-17T04:24:40;8.43;;;1.80;;
50605;SDS011;36557;53.572;10.170;2022-07-17T04:27:07;3.53;;;1.17;;
50605;SDS011;36557;53.572;10.170;2022-07-17T04:29:33;4.65;;;1.15;;
50605;SDS011;36557;53.572;10.170;2022-07-17T04:31:59;7.78;;;1.20;;
50605;SDS011;36557;53.572;10.170;2022-07-17T04:34:25;4.57;;;1.13;;
50605;SDS011;36557;53.572;10.170;2022-07-17T04:36:51;4.47;;;1.20;;
50605;SDS011;36557;53.572;10.170;2022-07-17T04:39:17;5.30;;;1.08;;
50605;SDS011;36557;53.572;10.170;2022-07-17T04:41:43;3.83;;;1.45;;
50605;SDS011;36557;53.572;10.170;2022-07-17T04:44:08;5.43;;;1.40;;
50605;SDS011;36557;53.572;10.170;2022-07-17T04:46:34;7.22;;;1.27;;
50605;SDS011;36557;53.572;10.170;2022-07-17T04:49:00;4.03;;;1.20;;
50605;SDS011;36557;53.572;10.170;2022-07-17T04:51:25;7.05;;;1.50;;
50605;SDS011;36557;53.572;10.170;2022-07-17T04:53:51;5.57;;;1.48;;
50605;SDS011;36557;53.572;10.170;2022-07-17T04:56:17;4.82;;;1.40;;
50605;SDS011;36557;53.572;10.170;2022-07-17T04:58:43;5.47;;;1.52;;
50605;SDS011;36557;53.572;10.170;2022-07-17T05:01:08;5.63;;;1.40;;
50605;SDS011;36557;53.572;10.170;2022-07-17T05:03:34;3.58;;;1.15;;
50605;SDS011;36557;53.572;10.170;2022-07-17T05:06:00;2.88;;;0.98;;
50605;SDS011;36557;53.572;10.170;2022-07-17T05:08:26;6.63;;;1.27;;
50605;SDS011;36557;53.572;10.170;2022-07-17T05:10:51;8.38;;;1.27;;
50605;SDS011;36557;53.572;10.170;2022-07-17T05:13:17;4.13;;;1.20;;
50605;SDS011;36557;53.572;10.170;2022-07-17T05:15:43;6.47;;;1.30;;
50605;SDS011;36557;53.572;10.170;2022-07-17T05:18:08;5.82;;;1.30;;
50605;SDS011;36557;53.572;10.170;2022-07-17T05:20:34;4.05;;;1.20;;
50605;SDS011;36557;53.572;10.170;2022-07-17T05:23:00;6.53;;;1.20;;
50605;SDS011;36557;53.572;10.170;2022-07-17T05:25:26;3.92;;;1.15;;
50605;SDS011;36557;53.572;10.170;2022-07-17T05:27:52;5.45;;;1.40;;
50605;SDS011;36557;53.572;10.170;2022-07-17T05:30:17;7.63;;;1.42;;
50605;SDS011;36557;53.572;10.170;2022-07-17T05:32:43;4.03;;;1.20;;
50605;SDS011;36557;53.572;10.170;2022-07-17T05:35:09;4.60;;;1.48;;
50605;SDS011;36557;53.572;10.170;2022-07-17T05:37:34;3.75;;;1.35;;
50605;SDS011;36557;53.572;10.170;2022-07-17T05:40:00;7.07;;;1.63;;
50605;SDS011;36557;53.572;10.170;2022-07-17T05:42:26;7.30;;;1.52;;
50605;SDS011;36557;53.572;10.170;2022-07-17T05:44:52;4.93;;;1.70;;
50605;SDS011;36557;53.572;10.170;2022-07-17T05:47:17;5.15;;;1.58;;
50605;SDS011;36557;53.572;10.170;2022-07-17T05:49:43;2.97;;;1.58;;
50605;SDS011;36557;53.572;10.170;2022-07-17T05:52:09;4.72;;;1.40;;
50605;SDS011;36557;53.572;10.170;2022-07-17T05:54:34;4.43;;;1.30;;
50605;SDS011;36557;53.572;10.170;2022-07-17T05:57:00;4.93;;;1.42;;
50605;SDS011;36557;53.572;10.170;2022-07-17T05:59:26;5.22;;;1.60;;
50605;SDS011;36557;53.572;10.170;2022-07-17T06:01:52;3.25;;;1.40;;
50605;SDS011;36557;53.572;10.170;2022-07-17T06:04:18;5.10;;;1.30;;
50605;SDS011;36557;53.572;10.170;2022-07-17T06:06:43;9.05;;;1.60;;
50605;SDS011;36557;53.572;10.170;2022-07-17T06:09:09;4.10;;;1.63;;
50605;SDS011;36557;53.572;10.170;2022-07-17T06:11:35;7.35;;;1.63;;
50605;SDS011;36557;53.572;10.170;2022-07-17T06:14:00;2.83;;;1.30;;
50605;SDS011;36557;53.572;10.170;2022-07-17T06:16:26;4.40;;;1.85;;
50605;SDS011;36557;53.572;10.170;2022-07-17T06:18:52;4.55;;;1.60;;
50605;SDS011;36557;53.572;10.170;2022-07-17T06:21:18;5.22;;;1.67;;
50605;SDS011;36557;53.572;10.170;2022-07-17T06:23:43;5.28;;;1.80;;
50605;SDS011;36557;53.572;10.170;2022-07-17T06:26:09;6.03;;;1.80;;
50605;SDS011;36557;53.572;10.170;2022-07-17T06:28:35;3.72;;;2.00;;
50605;SDS011;36557;53.572;10.170;2022-07-17T06:31:01;3.42;;;1.85;;
50605;SDS011;36557;53.572;10.170;2022-07-17T06:33:26;4.97;;;1.83;;
50605;SDS011;36557;53.572;10.170;2022-07-17T06:35:52;4.40;;;2.42;;
50605;SDS011;36557;53.572;10.170;2022-07-17T06:38:18;5.30;;;2.55;;
50605;SDS011;36557;53.572;10.170;2022-07-17T06:40:44;5.13;;;2.28;;
50605;SDS011;36557;53.572;10.170;2022-07-17T06:43:09;4.32;;;2.58;;
50605;SDS011;36557;53.572;10.170;2022-07-17T06:45:35;6.65;;;2.40;;
50605;SDS011;36557;53.572;10.170;2022-07-17T06:48:01;9.52;;;2.67;;
50605;SDS011;36557;53.572;10.170;2022-07-17T06:50:27;5.53;;;2.75;;
50605;SDS011;36557;53.572;10.170;2022-07-17T06:52:53;7.45;;;2.80;;
50605;SDS011;36557;53.572;10.170;2022-07-17T06:55:19;6.00;;;2.72;;
50605;SDS011;36557;53.572;10.170;2022-07-17T06:57:45;6.30;;;2.60;;
50605;SDS011;36557;53.572;10.170;2022-07-17T07:00:10;4.50;;;2.58;;
50605;SDS011;36557;53.572;10.170;2022-07-17T07:02:37;5.47;;;3.05;;
50605;SDS011;36557;53.572;10.170;2022-07-17T07:05:03;4.28;;;2.83;;
50605;SDS011;36557;53.572;10.170;2022-07-17T07:07:29;5.43;;;3.50;;
50605;SDS011;36557;53.572;10.170;2022-07-17T07:09:55;4.82;;;2.97;;
50605;SDS011;36557;53.572;10.170;2022-07-17T07:12:21;6.05;;;3.40;;
50605;SDS011;36557;53.572;10.170;2022-07-17T07:14:47;5.82;;;3.10;;
50605;SDS011;36557;53.572;10.170;2022-07-17T07:17:13;4.20;;;2.58;;
50605;SDS011;36557;53.572;10.170;2022-07-17T07:19:38;6.47;;;3.08;;
50605;SDS011;36557;53.572;10.170;2022-07-17T07:22:04;5.13;;;2.53;;
50605;SDS011;36557;53.572;10.170;2022-07-17T07:24:30;6.22;;;2.95;;
50605;SDS011;36557;53.572;10.170;2022-07-17T07:26:56;5.35;;;3.17;;
50605;SDS011;36557;53.572;10.170;2022-07-17T07:29:21;4.18;;;2.63;;
50605;SDS011;36557;53.572;10.170;2022-07-17T07:31:47;7.53;;;3.00;;
50605;SDS011;36557;53.572;10.170;2022-07-17T07:34:13;10.15;;;4.28;;
50605;SDS011;36557;53.572;10.170;2022-07-17T07:36:39;7.88;;;3.60;;
50605;SDS011;36557;53.572;10.170;2022-07-17T07:39:05;6.32;;;3.33;;
50605;SDS011;36557;53.572;10.170;2022-07-17T07:41:30;6.43;;;3.60;;
50605;SDS011;36557;53.572;10.170;2022-07-17T07:43:56;3.85;;;3.08;;
50605;SDS011;36557;53.572;10.170;2022-07-17T07:46:22;5.60;;;2.65;;
50605;SDS011;36557;53.572;10.170;2022-07-17T07:48:48;5.70;;;3.35;;
50605;SDS011;36557;53.572;10.170;2022-07-17T07:51:14;5.93;;;4.00;;
50605;SDS011;36557;53.572;10.170;2022-07-17T07:53:39;7.47;;;6.15;;
50605;SDS011;36557;53.572;10.170;2022-07-17T07:56:05;7.15;;;6.07;;
50605;SDS011;36557;53.572;10.170;2022-07-17T07:58:31;5.80;;;4.90;;
50605;SDS011;36557;53.572;10.170;2022-07-17T08:00:57;4.38;;;3.67;;
50605;SDS011;36557;53.572;10.170;2022-07-17T08:03:22;6.40;;;3.35;;
50605;SDS011;36557;53.572;10.170;2022-07-17T08:05:48;8.05;;;5.22;;
50605;SDS011;36557;53.572;10.170;2022-07-17T08:08:15;8.05;;;5.32;;
50605;SDS011;36557;53.572;10.170;2022-07-17T08:10:40;9.52;;;6.75;;
50605;SDS011;36557;53.572;10.170;2022-07-17T08:13:06;6.78;;;6.28;;
50605;SDS011;36557;53.572;10.170;2022-07-17T08:15:32;7.93;;;6.50;;
50605;SDS011;36557;53.572;10.170;2022-07-17T08:17:58;8.00;;;6.95;;
50605;SDS011;36557;53.572;10.170;2022-07-17T08:20:24;9.35;;;8.48;;
50605;SDS011;36557;53.572;10.170;2022-07-17T08:22:51;10.80;;;10.10;;
50605;SDS011;36557;53.572;10.170;2022-07-17T08:25:16;11.25;;;9.98;;
50605;SDS011;36557;53.572;10.170;2022-07-17T08:27:43;7.80;;;7.20;;
50605;SDS011;36557;53.572;10.170;2022-07-17T08:30:10;10.05;;;6.65;;
50605;SDS011;36557;53.572;10.170;2022-07-17T08:32:37;8.88;;;5.78;;
50605;SDS011;36557;53.572;10.170;2022-07-17T08:35:03;9.20;;;4.43;;
50605;SDS011;36557;53.572;10.170;2022-07-17T08:37:30;13.15;;;4.78;;
50605;SDS011;36557;53.572;10.170;2022-07-17T08:40:06;8.57;;;5.53;;
50605;SDS011;36557;53.572;10.170;2022-07-17T08:42:32;9.05;;;6.43;;
50605;SDS011;36557;53.572;10.170;2022-07-17T08:45:07;7.72;;;6.10;;
50605;SDS011;36557;53.572;10.170;2022-07-17T08:47:34;12.48;;;9.38;;
50605;SDS011;36557;53.572;10.170;2022-07-17T08:50:01;8.25;;;7.43;;
50605;SDS011;36557;53.572;10.170;2022-07-17T08:52:27;11.05;;;9.98;;
50605;SDS011;36557;53.572;10.170;2022-07-17T08:54:53;18.52;;;17.27;;
50605;SDS011;36557;53.572;10.170;2022-07-17T08:57:18;14.15;;;12.90;;
50605;SDS011;36557;53.572;10.170;2022-07-17T08:59:47;11.35;;;10.43;;
50605;SDS011;36557;53.572;10.170;2022-07-17T09:02:12;15.35;;;14.02;;
50605;SDS011;36557;53.572;10.170;2022-07-17T09:04:39;109.25;;;86.90;;
50605;SDS011;36557;53.572;10.170;2022-07-17T09:07:05;18.98;;;17.38;;
50605;SDS011;36557;53.572;10.170;2022-07-17T09:09:31;17.10;;;15.90;;
50605;SDS011;36557;53.572;10.170;2022-07-17T09:11:59;38.60;;;34.92;;
50605;SDS011;36557;53.572;10.170;2022-07-17T09:14:35;23.35;;;22.05;;
50605;SDS011;36557;53.572;10.170;2022-07-17T09:17:07;24.27;;;22.88;;
50605;SDS011;36557;53.572;10.170;2022-07-17T09:19:37;29.23;;;27.42;;
50605;SDS011;36557;53.572;10.170;2022-07-17T09:24:41;22.73;;;21.30;;
50605;SDS011;36557;53.572;10.170;2022-07-17T09:27:17;38.17;;;36.05;;
50605;SDS011;36557;53.572;10.170;2022-07-17T09:29:57;27.33;;;25.83;;
50605;SDS011;36557;53.572;10.170;2022-07-17T09:32:29;33.85;;;32.03;;
50605;SDS011;36557;53.572;10.170;2022-07-17T09:34:59;29.48;;;27.90;;
50605;SDS011;36557;53.572;10.170;2022-07-17T09:37:26;40.08;;;37.78;;
50605;SDS011;36557;53.572;10.170;2022-07-17T09:39:54;39.85;;;37.47;;
50605;SDS011;36557;53.572;10.170;2022-07-17T09:42:28;25.55;;;23.75;;
50605;SDS011;36557;53.572;10.170;2022-07-17T09:47:23;34.95;;;33.08;;
50605;SDS011;36557;53.572;10.170;2022-07-17T09:49:50;39.55;;;37.20;;
50605;SDS011;36557;53.572;10.170;2022-07-17T09:52:23;48.67;;;46.28;;
50605;SDS011;36557;53.572;10.170;2022-07-17T09:54:55;38.20;;;36.08;;
50605;SDS011;36557;53.572;10.170;2022-07-17T09:57:23;31.70;;;30.08;;
50605;SDS011;36557;53.572;10.170;2022-07-17T09:59:53;36.92;;;34.90;;
50605;SDS011;36557;53.572;10.170;2022-07-17T10:02:20;48.70;;;45.92;;
50605;SDS011;36557;53.572;10.170;2022-07-17T10:04:46;37.60;;;35.55;;
50605;SDS011;36557;53.572;10.170;2022-07-17T10:07:12;48.33;;;45.90;;
50605;SDS011;36557;53.572;10.170;2022-07-17T10:09:39;44.85;;;42.42;;
50605;SDS011;36557;53.572;10.170;2022-07-17T10:12:05;48.17;;;45.50;;
50605;SDS011;36557;53.572;10.170;2022-07-17T10:14:32;45.75;;;43.47;;
50605;SDS011;36557;53.572;10.170;2022-07-17T10:17:09;36.90;;;35.03;;
50605;SDS011;36557;53.572;10.170;2022-07-17T10:19:49;51.95;;;49.30;;
50605;SDS011;36557;53.572;10.170;2022-07-17T10:22:18;42.65;;;40.10;;
50605;SDS011;36557;53.572;10.170;2022-07-17T10:24:45;35.90;;;34.05;;
50605;SDS011;36557;53.572;10.170;2022-07-17T10:27:22;41.63;;;39.35;;
50605;SDS011;36557;53.572;10.170;2022-07-17T10:30:02;96.80;;;86.72;;
50605;SDS011;36557;53.572;10.170;2022-07-17T10:32:34;60.38;;;57.38;;
50605;SDS011;36557;53.572;10.170;2022-07-17T10:35:01;42.88;;;40.60;;
50605;SDS011;36557;53.572;10.170;2022-07-17T10:37:38;40.15;;;38.00;;
50605;SDS011;36557;53.572;10.170;2022-07-17T10:45:20;41.40;;;39.25;;
50605;SDS011;36557;53.572;10.170;2022-07-17T10:48:00;27.80;;;25.98;;
50605;SDS011;36557;53.572;10.170;2022-07-17T10:50:40;50.95;;;48.25;;
50605;SDS011;36557;53.572;10.170;2022-07-17T10:53:14;61.95;;;58.58;;
50605;SDS011;36557;53.572;10.170;2022-07-17T10:55:43;33.53;;;31.75;;
50605;SDS011;36557;53.572;10.170;2022-07-17T10:58:29;65.78;;;62.38;;
50605;SDS011;36557;53.572;10.170;2022-07-17T11:03:37;51.15;;;48.53;;
50605;SDS011;36557;53.572;10.170;2022-07-17T11:06:12;80.40;;;76.07;;
50605;SDS011;36557;53.572;10.170;2022-07-17T11:08:42;110.95;;;105.20;;
50605;SDS011;36557;53.572;10.170;2022-07-17T11:16:58;96.18;;;90.88;;
50605;SDS011;36557;53.572;10.170;2022-07-17T11:19:35;93.05;;;87.97;;
50605;SDS011;36557;53.572;10.170;2022-07-17T11:22:04;79.85;;;75.45;;
50605;SDS011;36557;53.572;10.170;2022-07-17T11:24:39;143.45;;;135.32;;
50605;SDS011;36557;53.572;10.170;2022-07-17T11:27:07;106.28;;;100.18;;
50605;SDS011;36557;53.572;10.170;2022-07-17T11:29:36;136.70;;;129.18;;
50605;SDS011;36557;53.572;10.170;2022-07-17T11:32:02;87.97;;;82.95;;
50605;SDS011;36557;53.572;10.170;2022-07-17T11:34:28;67.53;;;63.85;;
50605;SDS011;36557;53.572;10.170;2022-07-17T11:36:58;101.60;;;95.97;;
50605;SDS011;36557;53.572;10.170;2022-07-17T11:42:18;160.23;;;151.52;;
50605;SDS011;36557;53.572;10.170;2022-07-17T11:44:45;79.55;;;74.93;;
50605;SDS011;36557;53.572;10.170;2022-07-17T11:47:20;66.75;;;62.92;;
50605;SDS011;36557;53.572;10.170;2022-07-17T11:49:51;118.40;;;111.18;;
50605;SDS011;36557;53.572;10.170;2022-07-17T11:52:28;86.93;;;81.53;;
50605;SDS011;36557;53.572;10.170;2022-07-17T11:55:04;127.05;;;120.13;;
50605;SDS011;36557;53.572;10.170;2022-07-17T11:57:30;110.10;;;104.35;;
50605;SDS011;36557;53.572;10.170;2022-07-17T12:00:16;83.15;;;78.72;;
50605;SDS011;36557;53.572;10.170;2022-07-17T12:02:44;99.78;;;94.65;;
50605;SDS011;36557;53.572;10.170;2022-07-17T12:05:10;80.45;;;76.18;;
50605;SDS011;36557;53.572;10.170;2022-07-17T12:07:40;68.63;;;64.78;;
50605;SDS011;36557;53.572;10.170;2022-07-17T12:10:13;82.70;;;78.32;;
50605;SDS011;36557;53.572;10.170;2022-07-17T12:12:50;61.33;;;58.10;;
50605;SDS011;36557;53.572;10.170;2022-07-17T12:15:17;56.88;;;53.67;;
50605;SDS011;36557;53.572;10.170;2022-07-17T12:17:43;65.75;;;62.15;;
50605;SDS011;36557;53.572;10.170;2022-07-17T12:20:09;72.75;;;68.88;;
50605;SDS011;36557;53.572;10.170;2022-07-17T12:22:45;119.88;;;113.43;;
50605;SDS011;36557;53.572;10.170;2022-07-17T12:28:06;90.97;;;85.97;;
50605;SDS011;36557;53.572;10.170;2022-07-17T12:30:32;119.88;;;113.18;;
50605;SDS011;36557;53.572;10.170;2022-07-17T12:32:58;81.38;;;76.63;;
50605;SDS011;36557;53.572;10.170;2022-07-17T12:35:24;127.20;;;119.47;;
50605;SDS011;36557;53.572;10.170;2022-07-17T12:37:50;107.20;;;100.70;;
50605;SDS011;36557;53.572;10.170;2022-07-17T12:40:15;77.47;;;72.65;;
50605;SDS011;36557;53.572;10.170;2022-07-17T12:42:42;138.90;;;130.38;;
50605;SDS011;36557;53.572;10.170;2022-07-17T12:45:08;64.20;;;60.55;;
50605;SDS011;36557;53.572;10.170;2022-07-17T12:47:35;59.08;;;55.88;;
50605;SDS011;36557;53.572;10.170;2022-07-17T12:50:00;80.97;;;76.47;;
50605;SDS011;36557;53.572;10.170;2022-07-17T12:52:26;48.63;;;45.67;;
50605;SDS011;36557;53.572;10.170;2022-07-17T12:54:52;106.05;;;100.10;;
50605;SDS011;36557;53.572;10.170;2022-07-17T12:57:18;141.43;;;133.88;;
50605;SDS011;36557;53.572;10.170;2022-07-17T12:59:44;50.15;;;47.33;;
50605;SDS011;36557;53.572;10.170;2022-07-17T13:02:09;125.65;;;118.78;;
50605;SDS011;36557;53.572;10.170;2022-07-17T13:04:36;37.40;;;35.25;;
50605;SDS011;36557;53.572;10.170;2022-07-17T13:07:02;113.30;;;107.00;;
50605;SDS011;36557;53.572;10.170;2022-07-17T13:09:28;74.60;;;70.57;;
50605;SDS011;36557;53.572;10.170;2022-07-17T13:11:54;71.70;;;67.78;;
50605;SDS011;36557;53.572;10.170;2022-07-17T13:14:20;86.47;;;81.15;;
50605;SDS011;36557;53.572;10.170;2022-07-17T13:16:46;85.50;;;80.43;;
50605;SDS011;36557;53.572;10.170;2022-07-17T13:19:11;138.52;;;130.50;;
50605;SDS011;36557;53.572;10.170;2022-07-17T13:21:37;131.90;;;124.57;;
50605;SDS011;36557;53.572;10.170;2022-07-17T13:24:03;112.80;;;106.50;;
50605;SDS011;36557;53.572;10.170;2022-07-17T13:26:30;108.45;;;101.25;;
50605;SDS011;36557;53.572;10.170;2022-07-17T13:28:57;143.63;;;135.15;;
50605;SDS011;36557;53.572;10.170;2022-07-17T13:31:23;79.20;;;74.70;;
50605;SDS011;36557;53.572;10.170;2022-07-17T13:33:48;112.80;;;106.57;;
50605;SDS011;36557;53.572;10.170;2022-07-17T13:36:14;142.65;;;134.73;;
50605;SDS011;36557;53.572;10.170;2022-07-17T13:38:40;88.03;;;83.05;;
50605;SDS011;36557;53.572;10.170;2022-07-17T13:41:07;153.30;;;144.63;;
50605;SDS011;36557;53.572;10.170;2022-07-17T13:43:33;130.60;;;123.05;;
50605;SDS011;36557;53.572;10.170;2022-07-17T13:45:59;182.25;;;172.05;;
50605;SDS011;36557;53.572;10.170;2022-07-17T13:48:25;114.70;;;107.97;;
50605;SDS011;36557;53.572;10.170;2022-07-17T13:50:50;115.18;;;108.57;;
50605;SDS011;36557;53.572;10.170;2022-07-17T13:53:16;178.20;;;167.27;;
50605;SDS011;36557;53.572;10.170;2022-07-17T13:55:42;126.03;;;118.93;;
50605;SDS011;36557;53.572;10.170;2022-07-17T13:58:08;177.50;;;167.30;;
50605;SDS011;36557;53.572;10.170;2022-07-17T14:00:33;72.57;;;68.43;;
50605;SDS011;36557;53.572;10.170;2022-07-17T14:02:59;70.53;;;66.55;;
50605;SDS011;36557;53.572;10.170;2022-07-17T14:05:25;160.88;;;151.63;;
50605;SDS011;36557;53.572;10.170;2022-07-17T14:07:51;130.98;;;123.60;;
50605;SDS011;36557;53.572;10.170;2022-07-17T14:10:16;78.63;;;74.35;;
50605;SDS011;36557;53.572;10.170;2022-07-17T14:12:43;132.20;;;124.97;;
50605;SDS011;36557;53.572;10.170;2022-07-17T14:15:09;116.10;;;109.88;;
50605;SDS011;36557;53.572;10.170;2022-07-17T14:17:37;64.05;;;60.58;;
50605;SDS011;36557;53.572;10.170;2022-07-17T14:20:03;127.15;;;120.40;;
50605;SDS011;36557;53.572;10.170;2022-07-17T14:22:30;139.75;;;132.20;;
50605;SDS011;36557;53.572;10.170;2022-07-17T14:24:56;168.18;;;158.98;;
50605;SDS011;36557;53.572;10.170;2022-07-17T14:27:21;143.63;;;135.98;;
50605;SDS011;36557;53.572;10.170;2022-07-17T14:29:47;168.07;;;159.05;;
50605;SDS011;36557;53.572;10.170;2022-07-17T14:32:14;58.75;;;55.50;;
50605;SDS011;36557;53.572;10.170;2022-07-17T14:34:40;79.00;;;74.82;;
50605;SDS011;36557;53.572;10.170;2022-07-17T14:37:06;105.70;;;99.97;;
50605;SDS011;36557;53.572;10.170;2022-07-17T14:39:33;109.30;;;103.43;;
50605;SDS011;36557;53.572;10.170;2022-07-17T14:42:00;139.15;;;131.48;;
50605;SDS011;36557;53.572;10.170;2022-07-17T14:44:26;171.15;;;161.73;;